Time;durP1;ratioP1;P1;durP2;ratioP2;P2;SDS_P1;SDS_P2;PMS_P1;PMS_P2;Temp;Humidity;BMP_temperature;BMP_pressure;BME280_temperature;BME280_humidity;BME280_pressure;Samples;Min_cycle;Max_cycle;Signal;HPM_P1;HPM_P2
2021/12/23 00:00:23;;;;;;;33.37;19.17;;;-1.60;99.90;;;;;;4968986;28;20533;-60
2021/12/23 00:02:51;;;;;;;30.83;18.50;;;-1.60;99.90;;;;;;4969673;28;20997;-60
2021/12/23 00:05:19;;;;;;;32.87;18.60;;;-1.30;99.90;;;;;;4955121;28;20479;-60
2021/12/23 00:07:47;;;;;;;37.33;20.27;;;-0.80;99.90;;;;;;4955516;28;20469;-60
2021/12/23 00:10:16;;;;;;;37.60;21.50;;;-1.00;99.90;;;;;;4955741;28;21025;-61
2021/12/23 00:12:47;;;;;;;37.43;21.37;;;-1.00;99.90;;;;;;4954038;28;20470;-60
2021/12/23 00:15:27;;;;;;;35.23;20.20;;;-1.20;99.90;;;;;;4954928;28;20491;-60
2021/12/23 00:17:59;;;;;;;35.03;20.10;;;-1.30;99.90;;;;;;4944086;28;20554;-60
2021/12/23 00:23:28;;;;;;;35.83;19.37;;;-1.60;99.90;;;;;;4970223;28;21024;-60
2021/12/23 00:26:00;;;;;;;32.33;19.30;;;-1.60;99.90;;;;;;4974785;28;20540;-60
2021/12/23 00:28:31;;;;;;;35.00;20.07;;;-1.30;99.90;;;;;;4974399;28;20470;-60
2021/12/23 00:31:00;;;;;;;35.63;19.87;;;-1.40;99.90;;;;;;4974475;28;20886;-60
2021/12/23 00:33:29;;;;;;;33.57;19.67;;;-1.40;99.90;;;;;;4893606;28;20600;-60
2021/12/23 00:35:58;;;;;;;35.35;20.90;;;-1.20;99.90;;;;;;992069;28;10001956;-60
2021/12/23 00:38:29;;;;;;;38.93;21.53;;;-1.10;99.90;;;;;;4952446;28;20243;-60
2021/12/23 00:41:00;;;;;;;32.03;18.73;;;-0.80;99.90;;;;;;4955353;28;20485;-60
2021/12/23 00:43:30;;;;;;;37.67;20.63;;;-1.00;99.90;;;;;;4961754;28;20471;-60
2021/12/23 00:45:59;;;;;;;31.17;17.20;;;-1.30;99.90;;;;;;4955102;28;20467;-60
2021/12/23 00:48:28;;;;;;;38.03;21.83;;;-0.90;99.90;;;;;;4966765;28;20492;-60
2021/12/23 00:50:56;;;;;;;38.30;19.43;;;-1.00;99.90;;;;;;4974253;28;21007;-60
2021/12/23 00:53:26;;;;;;;35.57;18.97;;;-0.90;99.90;;;;;;4965183;28;20857;-58
2021/12/23 00:55:55;;;;;;;38.93;20.77;;;-0.60;99.90;;;;;;4974089;28;21020;-60
2021/12/23 00:58:24;;;;;;;42.63;21.23;;;-0.50;99.90;;;;;;4974167;28;20891;-60
2021/12/23 01:00:54;;;;;;;46.83;24.13;;;-0.30;99.90;;;;;;4974271;28;20473;-60
2021/12/23 01:03:22;;;;;;;51.57;26.63;;;-0.10;99.90;;;;;;4965770;28;20477;-60
2021/12/23 01:05:50;;;;;;;45.33;22.70;;;0.00;99.90;;;;;;4954772;28;20834;-60
2021/12/23 01:08:19;;;;;;;53.90;26.00;;;0.10;99.90;;;;;;4965399;28;20501;-60
2021/12/23 01:10:51;;;;;;;43.67;23.77;;;0.30;99.90;;;;;;4973601;28;21028;-60
2021/12/23 01:13:25;;;;;;;44.90;24.37;;;-0.10;99.90;;;;;;4972918;28;20506;-60
2021/12/23 01:16:02;;;;;;;45.00;24.73;;;-0.60;99.90;;;;;;4973830;28;20494;-60
2021/12/23 01:18:37;;;;;;;47.20;25.07;;;-0.70;99.90;;;;;;4973543;28;20958;-60
2021/12/23 01:21:15;;;;;;;44.00;24.23;;;-1.00;99.90;;;;;;4973947;28;20516;-60
2021/12/23 01:23:46;;;;;;;38.20;20.80;;;-1.10;99.90;;;;;;4963746;28;20482;-59
2021/12/23 01:26:19;;;;;;;46.33;22.10;;;-1.00;99.90;;;;;;4954639;28;20487;-60
2021/12/23 01:28:49;;;;;;;53.03;27.57;;;-0.30;99.90;;;;;;4968707;28;20482;-58
2021/12/23 01:31:20;;;;;;;43.10;23.63;;;-0.20;99.90;;;;;;4972990;28;20878;-60
2021/12/23 01:33:48;;;;;;;48.47;23.33;;;0.30;99.90;;;;;;4973147;28;20476;-60
2021/12/23 01:36:16;;;;;;;59.20;29.60;;;0.40;99.90;;;;;;4973376;28;20510;-59
2021/12/23 01:38:45;;;;;;;48.10;24.60;;;0.30;99.90;;;;;;4973145;28;20477;-59
2021/12/23 01:41:13;;;;;;;45.17;24.07;;;0.10;99.90;;;;;;4972875;28;20569;-61
2021/12/23 01:43:42;;;;;;;57.37;27.87;;;0.00;99.90;;;;;;4963549;28;20558;-60
2021/12/23 01:46:15;;;;;;;49.87;27.73;;;0.00;99.90;;;;;;4954094;28;20557;-60
2021/12/23 01:48:44;;;;;;;45.50;23.73;;;-0.60;99.90;;;;;;4967707;28;20477;-60
2021/12/23 01:51:13;;;;;;;55.53;28.40;;;-0.30;99.90;;;;;;4964175;28;20994;-60
2021/12/23 01:53:42;;;;;;;49.00;26.70;;;-0.20;99.90;;;;;;4972858;28;20478;-60
2021/12/23 01:56:10;;;;;;;45.87;22.77;;;-0.30;99.90;;;;;;4973060;28;21084;-60
2021/12/23 01:58:39;;;;;;;52.67;26.77;;;-0.10;99.90;;;;;;4972860;28;20481;-61
2021/12/23 02:01:09;;;;;;;44.10;23.57;;;-0.60;99.90;;;;;;4971911;28;20573;-60
2021/12/23 02:03:38;;;;;;;48.50;25.10;;;-0.20;99.90;;;;;;4972681;28;20485;-60
2021/12/23 02:06:08;;;;;;;50.17;26.63;;;0.20;99.90;;;;;;4973053;28;20461;-60
2021/12/23 02:08:38;;;;;;;45.37;25.30;;;-0.40;99.90;;;;;;4972686;28;20466;-59
2021/12/23 02:11:09;;;;;;;45.13;22.23;;;-0.20;99.90;;;;;;4954325;28;20490;-60
2021/12/23 02:13:38;;;;;;;41.00;21.80;;;-0.20;99.90;;;;;;4947290;28;20530;-60
2021/12/23 02:16:07;;;;;;;49.40;25.40;;;-0.20;99.90;;;;;;4953317;28;20475;-60
2021/12/23 02:18:36;;;;;;;42.17;22.53;;;-0.20;99.90;;;;;;4953163;28;20483;-60
2021/12/23 02:21:06;;;;;;;49.30;24.70;;;0.00;99.90;;;;;;4952558;28;20479;-60
2021/12/23 02:23:36;;;;;;;49.87;27.30;;;-0.10;99.90;;;;;;4946460;28;20522;-60
2021/12/23 02:26:04;;;;;;;46.70;26.23;;;-0.30;99.90;;;;;;4953478;28;20475;-60
2021/12/23 02:28:33;;;;;;;47.00;25.77;;;-0.50;99.90;;;;;;4953051;28;20471;-60
2021/12/23 02:31:01;;;;;;;43.20;23.80;;;-0.70;99.90;;;;;;4952441;28;20486;-60
2021/12/23 02:33:30;;;;;;;38.53;22.03;;;-0.80;99.90;;;;;;4946655;28;20467;-60
2021/12/23 02:35:59;;;;;;;48.57;25.37;;;-0.80;99.90;;;;;;4953063;28;21069;-60
2021/12/23 02:38:29;;;;;;;43.37;23.57;;;-0.30;99.90;;;;;;4952702;28;20843;-59
2021/12/23 02:40:57;;;;;;;43.53;24.73;;;0.00;99.90;;;;;;4952265;28;20991;-60
2021/12/23 02:43:29;;;;;;;44.50;25.50;;;-0.10;99.90;;;;;;4936758;29;20479;-60
2021/12/23 02:45:59;;;;;;;39.20;22.03;;;-0.30;99.90;;;;;;4933897;29;20558;-60
2021/12/23 02:48:30;;;;;;;37.80;22.03;;;-0.20;99.90;;;;;;4945437;28;20483;-60
2021/12/23 02:50:59;;;;;;;42.20;24.10;;;-0.40;99.90;;;;;;4951561;28;20478;-60
2021/12/23 02:53:29;;;;;;;32.67;19.20;;;-0.60;99.90;;;;;;4945622;28;20514;-61
2021/12/23 02:55:59;;;;;;;40.97;24.77;;;-0.60;99.90;;;;;;4949504;28;20494;-60
2021/12/23 02:58:28;;;;;;;40.80;22.03;;;-0.40;99.90;;;;;;4952430;28;20491;-60
2021/12/23 03:00:59;;;;;;;43.00;24.40;;;0.00;99.90;;;;;;4953111;28;20467;-59
2021/12/23 03:03:27;;;;;;;47.37;24.23;;;-0.40;99.90;;;;;;4952547;28;20479;-60
2021/12/23 03:05:58;;;;;;;36.53;20.90;;;-0.20;99.90;;;;;;4951936;28;20530;-60
2021/12/23 03:08:33;;;;;;;40.20;23.03;;;-0.20;99.90;;;;;;4944397;28;21082;-60
2021/12/23 03:11:01;;;;;;;42.23;24.90;;;-0.40;99.90;;;;;;4952734;28;21006;-60
2021/12/23 03:13:29;;;;;;;40.50;23.27;;;-0.50;99.90;;;;;;4952707;28;20566;-60
2021/12/23 03:15:58;;;;;;;41.47;24.23;;;-0.50;99.90;;;;;;4952020;28;20998;-61
2021/12/23 03:18:26;;;;;;;32.97;20.03;;;-0.60;99.90;;;;;;4942260;28;20487;-61
2021/12/23 03:20:54;;;;;;;34.27;20.07;;;-0.60;99.90;;;;;;4933435;29;20539;-60
2021/12/23 03:23:23;;;;;;;39.63;23.53;;;-0.80;99.90;;;;;;4944427;28;20471;-60
2021/12/23 03:25:52;;;;;;;39.97;22.50;;;-0.80;99.90;;;;;;4951867;28;20585;-60
2021/12/23 03:28:21;;;;;;;33.43;21.67;;;-0.90;99.90;;;;;;4944295;28;20903;-60
2021/12/23 03:30:49;;;;;;;36.77;20.43;;;-0.90;99.90;;;;;;4952494;28;20479;-60
2021/12/23 03:33:17;;;;;;;36.80;21.53;;;-0.90;99.90;;;;;;4953380;28;20468;-60
2021/12/23 03:35:46;;;;;;;30.73;20.30;;;-0.50;99.90;;;;;;4956220;28;20530;-60
2021/12/23 03:38:16;;;;;;;31.50;20.10;;;-0.80;99.90;;;;;;4955143;28;20468;-60
2021/12/23 03:40:44;;;;;;;30.43;17.93;;;-0.80;99.90;;;;;;4943977;28;20602;-60
2021/12/23 03:43:16;;;;;;;35.70;21.83;;;-0.70;99.90;;;;;;4947485;28;20569;-60
2021/12/23 03:45:45;;;;;;;30.13;18.80;;;-0.60;99.90;;;;;;4975187;28;20556;-60
2021/12/23 03:48:15;;;;;;;30.83;19.07;;;-0.60;99.90;;;;;;4976003;28;20502;-60
2021/12/23 03:50:44;;;;;;;32.80;20.70;;;-0.60;99.90;;;;;;4975473;28;20492;-60
2021/12/23 03:53:12;;;;;;;30.60;20.40;;;-0.50;99.90;;;;;;4972093;28;20977;-59
2021/12/23 03:55:41;;;;;;;32.90;20.10;;;-0.70;99.90;;;;;;4948257;28;20478;-60
2021/12/23 03:58:09;;;;;;;32.67;18.83;;;-0.70;99.90;;;;;;4969305;28;20920;-60
2021/12/23 04:00:40;;;;;;;31.17;20.03;;;-0.70;99.90;;;;;;4974700;28;20877;-61
2021/12/23 04:03:08;;;;;;;33.60;20.57;;;-0.80;99.90;;;;;;4955701;28;20471;-60
2021/12/23 04:05:37;;;;;;;31.03;19.53;;;-0.80;99.90;;;;;;4955635;28;20469;-60
2021/12/23 04:08:06;;;;;;;30.60;18.83;;;-0.80;99.90;;;;;;4955719;28;21054;-60
2021/12/23 04:10:35;;;;;;;29.80;18.30;;;-0.80;99.90;;;;;;4951882;28;20464;-60
2021/12/23 04:13:03;;;;;;;29.30;19.80;;;-0.80;99.90;;;;;;4945025;28;20565;-60
2021/12/23 04:15:31;;;;;;;28.20;18.83;;;-0.70;99.90;;;;;;4955534;28;20486;-60
2021/12/23 04:18:01;;;;;;;32.37;20.37;;;-0.50;99.90;;;;;;4955487;28;20478;-60
2021/12/23 04:20:34;;;;;;;32.27;18.80;;;-0.70;99.90;;;;;;4955421;28;20503;-60
2021/12/23 04:23:04;;;;;;;27.93;18.63;;;-0.80;99.90;;;;;;4955287;28;20522;-60
2021/12/23 04:25:32;;;;;;;27.60;19.00;;;-0.70;99.90;;;;;;4955337;28;20979;-60
2021/12/23 04:28:02;;;;;;;27.07;17.37;;;-0.80;99.90;;;;;;4948300;28;20925;-60
2021/12/23 04:30:31;;;;;;;26.43;17.93;;;-0.70;99.90;;;;;;4943844;28;20571;-60
2021/12/23 04:33:00;;;;;;;28.33;19.90;;;-0.70;99.90;;;;;;4944306;28;20847;-60
2021/12/23 04:35:29;;;;;;;29.13;19.13;;;-0.80;99.90;;;;;;4954846;28;20898;-59
2021/12/23 04:37:57;;;;;;;27.77;17.87;;;-0.80;99.90;;;;;;4955057;28;20471;-60
2021/12/23 04:40:25;;;;;;;28.23;19.13;;;-0.90;99.90;;;;;;4955260;28;20483;-60
2021/12/23 04:42:53;;;;;;;25.30;17.37;;;-0.90;99.90;;;;;;4955272;28;20986;-60
2021/12/23 04:45:21;;;;;;;29.10;19.53;;;-0.80;99.90;;;;;;4954624;28;20506;-60
2021/12/23 04:47:49;;;;;;;28.60;18.73;;;-0.80;99.90;;;;;;4954163;28;20479;-60
2021/12/23 04:50:19;;;;;;;26.57;18.63;;;-0.80;99.90;;;;;;4940737;29;20976;-60
2021/12/23 04:52:48;;;;;;;26.53;18.27;;;-0.80;99.90;;;;;;4942063;28;20490;-60
2021/12/23 04:55:17;;;;;;;26.67;17.37;;;-0.90;99.90;;;;;;4955064;28;20475;-60
2021/12/23 04:57:45;;;;;;;29.37;18.57;;;-0.80;99.90;;;;;;4953304;28;20486;-60
2021/12/23 05:00:16;;;;;;;27.70;18.33;;;-0.90;99.90;;;;;;4955142;28;20509;-60
2021/12/23 05:02:44;;;;;;;28.53;17.57;;;-0.90;99.90;;;;;;4954772;28;20501;-60
2021/12/23 05:05:13;;;;;;;27.93;18.03;;;-0.80;99.90;;;;;;4955206;28;21046;-60
2021/12/23 05:07:43;;;;;;;27.67;17.77;;;-0.70;99.90;;;;;;4954817;28;21016;-60
2021/12/23 05:10:14;;;;;;;26.73;17.83;;;-0.80;99.90;;;;;;4957652;28;20522;-60
2021/12/23 05:12:46;;;;;;;27.80;19.33;;;-0.80;99.90;;;;;;4960094;28;20493;-61
2021/12/23 05:15:16;;;;;;;28.50;18.93;;;-0.70;99.90;;;;;;4973626;28;20478;-60
2021/12/23 05:17:45;;;;;;;29.20;18.90;;;-0.80;99.90;;;;;;4973680;28;20516;-60
2021/12/23 05:20:16;;;;;;;29.93;18.13;;;-0.80;99.90;;;;;;4974139;28;20496;-60
2021/12/23 05:22:45;;;;;;;31.20;20.07;;;-0.50;99.90;;;;;;4973282;28;20549;-60
2021/12/23 05:25:13;;;;;;;29.37;19.50;;;-0.70;99.90;;;;;;4974330;28;20489;-60
2021/12/23 05:27:42;;;;;;;34.50;20.50;;;-0.80;99.90;;;;;;4973607;28;20493;-60
2021/12/23 05:30:14;;;;;;;29.00;19.30;;;-0.70;99.90;;;;;;4973870;28;20474;-60
2021/12/23 05:32:43;;;;;;;29.10;19.27;;;-0.70;99.90;;;;;;4973630;28;20478;-60
2021/12/23 05:35:12;;;;;;;28.07;17.60;;;-0.70;99.90;;;;;;4970393;28;20474;-60
2021/12/23 05:37:40;;;;;;;31.90;20.23;;;-0.70;99.90;;;;;;4965887;28;20532;-60
2021/12/23 05:40:14;;;;;;;29.27;18.43;;;-0.60;99.90;;;;;;4973540;28;20462;-60
2021/12/23 05:42:43;;;;;;;28.17;19.07;;;-0.70;99.90;;;;;;4973224;28;20482;-60
2021/12/23 05:45:12;;;;;;;28.27;18.43;;;-0.70;99.90;;;;;;4973586;28;20473;-61
2021/12/23 05:47:40;;;;;;;28.80;18.97;;;-0.70;99.90;;;;;;4973143;28;20595;-60
2021/12/23 05:50:10;;;;;;;27.83;19.23;;;-0.70;99.90;;;;;;4973151;28;20474;-60
2021/12/23 05:52:39;;;;;;;30.27;18.40;;;-0.60;99.90;;;;;;4968834;28;21046;-60
2021/12/23 05:55:11;;;;;;;29.80;19.67;;;-0.70;99.90;;;;;;4961594;28;20488;-60
2021/12/23 05:57:40;;;;;;;30.23;18.50;;;-0.70;99.90;;;;;;4958032;28;20509;-60
2021/12/23 06:00:12;;;;;;;25.13;16.90;;;-0.70;99.90;;;;;;4973131;28;20467;-60
2021/12/23 06:02:40;;;;;;;27.37;18.70;;;-0.50;99.90;;;;;;4972979;28;20481;-60
2021/12/23 06:05:09;;;;;;;30.70;19.87;;;-0.60;99.90;;;;;;4972982;28;20502;-60
2021/12/23 06:07:38;;;;;;;27.87;18.47;;;-0.50;99.90;;;;;;4972686;28;21143;-60
2021/12/23 06:10:06;;;;;;;28.47;18.87;;;-0.50;99.90;;;;;;4973030;28;20478;-61
2021/12/23 06:12:36;;;;;;;26.93;18.33;;;-0.60;99.90;;;;;;4972606;28;20557;-60
2021/12/23 06:15:05;;;;;;;30.00;19.23;;;-0.60;99.90;;;;;;4972956;28;20475;-60
2021/12/23 06:17:33;;;;;;;29.67;19.13;;;-0.60;99.90;;;;;;4964033;28;20475;-59
2021/12/23 06:20:02;;;;;;;27.03;18.03;;;-0.70;99.90;;;;;;4957874;28;20479;-60
2021/12/23 06:22:33;;;;;;;28.40;18.73;;;-0.60;99.90;;;;;;4957152;28;20584;-60
2021/12/23 06:25:01;;;;;;;26.67;18.17;;;-0.70;99.90;;;;;;4972665;28;20505;-59
2021/12/23 06:27:29;;;;;;;26.90;18.40;;;-0.70;99.90;;;;;;4968362;28;21065;-60
2021/12/23 06:29:59;;;;;;;25.70;18.30;;;-0.60;99.90;;;;;;4972125;28;20482;-60
2021/12/23 06:32:27;;;;;;;26.53;18.40;;;-0.60;99.90;;;;;;4972111;28;20887;-60
2021/12/23 06:34:55;;;;;;;28.37;18.93;;;-0.60;99.90;;;;;;4972453;28;20475;-60
2021/12/23 06:37:23;;;;;;;26.77;18.23;;;-0.50;99.90;;;;;;4972266;28;20670;-60
2021/12/23 06:39:51;;;;;;;29.83;19.77;;;-0.40;99.90;;;;;;4972331;28;20569;-60
2021/12/23 06:42:23;;;;;;;28.33;19.13;;;-0.40;99.90;;;;;;4971450;28;20561;-60
2021/12/23 06:44:51;;;;;;;30.23;20.67;;;-0.50;99.90;;;;;;4964245;28;21012;-60
2021/12/23 06:47:20;;;;;;;31.10;20.83;;;-0.20;99.90;;;;;;4972212;28;20486;-60
2021/12/23 06:49:48;;;;;;;29.00;20.47;;;-0.10;99.90;;;;;;4972294;28;20577;-60
2021/12/23 06:52:16;;;;;;;28.20;18.80;;;0.20;99.90;;;;;;4972032;28;20564;-60
2021/12/23 06:54:48;;;;;;;30.77;20.53;;;0.20;99.90;;;;;;4971936;28;20470;-60
2021/12/23 06:57:16;;;;;;;32.47;20.83;;;0.10;99.90;;;;;;4972020;28;20537;-60
2021/12/23 06:59:44;;;;;;;30.50;20.77;;;-0.20;99.90;;;;;;4972000;28;20463;-60
2021/12/23 07:02:12;;;;;;;29.90;20.53;;;-0.30;99.90;;;;;;4963616;28;20470;-60
2021/12/23 07:04:43;;;;;;;30.33;20.80;;;-0.30;99.90;;;;;;4952786;28;20507;-60
2021/12/23 07:07:18;;;;;;;29.23;19.83;;;-0.30;99.90;;;;;;4970070;28;20569;-60
2021/12/23 07:09:46;;;;;;;31.03;21.17;;;-0.10;99.90;;;;;;4967481;28;20504;-60
2021/12/23 07:12:14;;;;;;;30.00;19.57;;;-0.10;99.90;;;;;;4971897;28;20477;-60
2021/12/23 07:14:43;;;;;;;31.90;20.30;;;0.00;99.90;;;;;;4972022;28;20478;-60
2021/12/23 07:17:11;;;;;;;32.40;21.93;;;0.10;99.90;;;;;;4968079;28;20474;-60
2021/12/23 07:19:40;;;;;;;31.03;21.47;;;0.00;99.90;;;;;;4971872;28;20508;-61
2021/12/23 07:22:08;;;;;;;34.67;22.20;;;0.10;99.90;;;;;;4971697;28;20497;-60
2021/12/23 07:24:37;;;;;;;35.40;23.43;;;0.10;99.90;;;;;;4969753;28;21871;-60
2021/12/23 07:27:05;;;;;;;35.03;22.63;;;0.20;99.90;;;;;;4959176;28;20467;-60
2021/12/23 07:29:33;;;;;;;32.63;21.07;;;0.00;99.90;;;;;;4956447;28;20496;-61
2021/12/23 07:32:03;;;;;;;34.13;22.27;;;-0.10;99.90;;;;;;4951774;28;20991;-60
2021/12/23 07:34:32;;;;;;;33.57;22.70;;;-0.10;99.90;;;;;;4952301;28;20537;-61
2021/12/23 07:37:02;;;;;;;38.10;22.93;;;-0.20;99.90;;;;;;4938707;28;20517;-60
2021/12/23 07:39:31;;;;;;;33.43;23.30;;;-0.20;99.90;;;;;;4952327;28;20577;-60
2021/12/23 07:42:20;;;;;;;34.00;22.80;;;-0.10;99.90;;;;;;4971590;28;21172;-59
2021/12/23 07:44:48;;;;;;;34.70;22.83;;;-0.30;99.90;;;;;;4971676;28;20478;-60
2021/12/23 07:47:17;;;;;;;33.17;21.97;;;-0.20;99.90;;;;;;4962053;28;20525;-61
2021/12/23 07:49:45;;;;;;;31.10;20.07;;;-0.40;99.90;;;;;;4951979;28;20481;-61
2021/12/23 07:52:15;;;;;;;33.33;22.77;;;-0.30;99.90;;;;;;4954579;28;20987;-60
2021/12/23 07:54:43;;;;;;;32.47;21.93;;;-0.40;99.90;;;;;;4971590;28;20470;-61
2021/12/23 07:57:12;;;;;;;33.93;22.83;;;-0.40;99.90;;;;;;4971659;28;20478;-61
2021/12/23 07:59:40;;;;;;;29.97;21.27;;;-0.40;99.90;;;;;;4971433;28;20470;-60
2021/12/23 08:02:08;;;;;;;33.10;22.97;;;-0.40;99.90;;;;;;4971597;28;20553;-60
2021/12/23 08:04:37;;;;;;;31.33;20.80;;;-0.30;99.90;;;;;;4962576;28;20513;-61
2021/12/23 08:07:05;;;;;;;31.53;21.53;;;-0.30;99.90;;;;;;4957153;28;20525;-60
2021/12/23 08:09:34;;;;;;;32.77;22.10;;;-0.40;99.90;;;;;;4971269;28;20474;-60
2021/12/23 08:12:05;;;;;;;28.93;20.83;;;-0.40;99.90;;;;;;4961290;28;20479;-60
2021/12/23 08:14:35;;;;;;;35.17;23.43;;;-0.20;99.90;;;;;;4946244;28;20491;-60
2021/12/23 08:17:21;;;;;;;31.67;21.77;;;-0.30;99.90;;;;;;4964917;28;20481;-60
2021/12/23 08:19:50;;;;;;;32.87;22.33;;;-0.30;99.90;;;;;;4964984;28;20513;-60
2021/12/23 08:22:18;;;;;;;33.60;22.23;;;-0.30;99.90;;;;;;4968800;28;20490;-59
2021/12/23 08:24:48;;;;;;;31.90;21.47;;;-0.30;99.90;;;;;;4969681;28;21012;-60
2021/12/23 08:27:16;;;;;;;31.80;20.90;;;-0.30;99.90;;;;;;4967737;28;20482;-61
2021/12/23 08:29:44;;;;;;;32.63;21.77;;;-0.30;99.90;;;;;;4968478;28;20482;-60
2021/12/23 08:32:12;;;;;;;30.87;20.97;;;-0.30;99.90;;;;;;4969621;28;20496;-60
2021/12/23 08:34:40;;;;;;;30.57;20.17;;;-0.30;99.90;;;;;;4969201;28;20568;-59
2021/12/23 08:37:11;;;;;;;28.43;19.23;;;-0.30;99.90;;;;;;4967831;28;20474;-60
2021/12/23 08:39:39;;;;;;;30.40;21.47;;;-0.30;99.90;;;;;;4969325;28;20572;-61
2021/12/23 08:42:09;;;;;;;28.90;20.73;;;-0.30;99.90;;;;;;4969125;28;20462;-60
2021/12/23 08:44:40;;;;;;;27.50;20.47;;;-0.20;99.90;;;;;;4968912;28;20520;-60
2021/12/23 08:47:08;;;;;;;27.63;19.73;;;-0.10;99.90;;;;;;4967294;28;20491;-60
2021/12/23 08:49:36;;;;;;;31.60;21.00;;;-0.10;99.90;;;;;;4969064;28;20462;-60
2021/12/23 08:52:05;;;;;;;29.37;20.77;;;-0.20;99.90;;;;;;4968888;28;20478;-60
2021/12/23 08:54:34;;;;;;;32.57;21.23;;;0.00;99.90;;;;;;4967162;28;20479;-60
2021/12/23 08:57:02;;;;;;;30.87;21.97;;;-0.10;99.90;;;;;;4967702;28;20482;-60
2021/12/23 08:59:31;;;;;;;28.90;20.37;;;0.00;99.90;;;;;;4968769;28;20528;-60
2021/12/23 09:02:00;;;;;;;31.13;21.43;;;0.00;99.90;;;;;;4968718;28;20485;-60
2021/12/23 09:04:33;;;;;;;31.97;22.00;;;-0.10;99.90;;;;;;4968761;28;20842;-60
2021/12/23 09:07:01;;;;;;;29.17;20.20;;;-0.10;99.90;;;;;;4967600;28;21019;-60
2021/12/23 09:09:32;;;;;;;30.60;21.67;;;-0.10;99.90;;;;;;4968731;28;20485;-60
2021/12/23 09:12:01;;;;;;;31.63;21.73;;;-0.10;99.90;;;;;;4968825;28;20565;-59
2021/12/23 09:14:30;;;;;;;29.00;20.53;;;-0.10;99.90;;;;;;4968360;28;20478;-60
2021/12/23 09:16:58;;;;;;;28.43;21.10;;;-0.10;99.90;;;;;;4967361;28;21033;-60
2021/12/23 09:19:27;;;;;;;31.20;22.07;;;-0.10;99.90;;;;;;4967626;28;20474;-60
2021/12/23 09:21:55;;;;;;;32.07;21.70;;;-0.10;99.90;;;;;;4966551;28;20489;-60
2021/12/23 09:24:26;;;;;;;30.87;22.43;;;0.00;99.90;;;;;;4967996;28;20474;-60
2021/12/23 09:27:00;;;;;;;30.73;21.33;;;-0.10;99.90;;;;;;4967114;28;20517;-60
2021/12/23 09:35:03;;;;;;;31.90;21.73;;;0.00;99.90;;;;;;4968159;28;20914;-60
2021/12/23 09:37:31;;;;;;;31.33;21.77;;;0.00;99.90;;;;;;4966067;28;20482;-60
2021/12/23 09:40:02;;;;;;;30.20;20.77;;;0.00;99.90;;;;;;4967966;28;20486;-59
2021/12/23 09:42:32;;;;;;;32.73;21.70;;;0.00;99.90;;;;;;4966919;28;20486;-59
2021/12/23 09:45:05;;;;;;;29.50;22.20;;;0.00;99.90;;;;;;4968037;28;20569;-60
2021/12/23 09:47:36;;;;;;;31.90;21.23;;;0.00;99.90;;;;;;4966407;28;20482;-59
2021/12/23 09:50:09;;;;;;;30.53;22.37;;;0.10;99.90;;;;;;4967924;28;20458;-60
2021/12/23 09:52:44;;;;;;;30.13;22.13;;;0.10;99.90;;;;;;4972279;28;20486;-61
2021/12/23 09:55:14;;;;;;;33.57;22.63;;;0.00;99.90;;;;;;4973070;28;20568;-59
2021/12/23 09:57:45;;;;;;;31.10;21.67;;;0.10;99.90;;;;;;4969997;28;20812;-59
2021/12/23 10:00:15;;;;;;;32.23;22.00;;;0.10;99.90;;;;;;4972670;28;20475;-60
2021/12/23 10:02:45;;;;;;;34.93;22.50;;;0.20;99.90;;;;;;4972546;28;20462;-60
2021/12/23 10:05:18;;;;;;;31.47;21.97;;;0.20;99.90;;;;;;4972499;28;20474;-60
2021/12/23 10:07:48;;;;;;;32.67;22.97;;;0.20;99.90;;;;;;4963963;28;20526;-60
2021/12/23 10:10:22;;;;;;;32.37;21.83;;;0.30;99.90;;;;;;4951675;28;20533;-60
2021/12/23 10:38:03;;;;;;;34.13;23.70;;;0.40;99.90;;;;;;4971147;28;20466;-60
2021/12/23 10:40:33;;;;;;;31.90;22.80;;;0.60;99.90;;;;;;4972024;28;20486;-60
2021/12/23 10:43:01;;;;;;;32.80;23.77;;;0.50;99.90;;;;;;4971854;28;20616;-60
2021/12/23 10:45:37;;;;;;;32.23;23.63;;;0.40;99.90;;;;;;4972009;28;20529;-60
2021/12/23 10:48:11;;;;;;;32.27;23.13;;;0.40;99.90;;;;;;4970911;28;20508;-61
2021/12/23 10:50:45;;;;;;;31.87;22.47;;;0.50;99.90;;;;;;4953107;28;20494;-61
2021/12/23 10:53:27;;;;;;;36.40;24.20;;;0.50;99.90;;;;;;4967571;28;20560;-61
2021/12/23 10:59:04;;;;;;;32.63;22.40;;;0.40;99.90;;;;;;4978543;28;20508;-61
2021/12/23 11:01:36;;;;;;;35.07;23.40;;;0.50;99.90;;;;;;4983133;28;20478;-61
2021/12/23 11:04:06;;;;;;;30.90;23.23;;;0.50;99.90;;;;;;4968640;28;20471;-61
2021/12/23 11:06:38;;;;;;;29.83;22.00;;;0.50;99.90;;;;;;4952543;28;20952;-61
2021/12/23 11:09:32;;;;;;;32.07;23.90;;;0.60;99.90;;;;;;4963072;28;20634;-61
2021/12/23 11:37:56;;;;;;;29.53;21.67;;;0.70;99.90;;;;;;4960794;28;20557;-61
2021/12/23 11:40:51;;;;;;;33.57;22.40;;;0.70;99.90;;;;;;4971931;28;20502;-61
2021/12/23 11:46:06;;;;;;;30.20;22.00;;;0.70;99.90;;;;;;4969620;28;20485;-61
2021/12/23 11:48:41;;;;;;;30.63;21.73;;;0.70;99.90;;;;;;4971391;28;20470;-61
2021/12/23 11:51:15;;;;;;;30.40;21.40;;;0.60;99.90;;;;;;4971618;28;20863;-61
2021/12/23 11:53:48;;;;;;;32.63;21.63;;;0.60;99.90;;;;;;4971613;28;20557;-61
2021/12/23 11:56:19;;;;;;;32.90;23.33;;;0.70;99.90;;;;;;4973673;28;20567;-61
2021/12/23 11:58:49;;;;;;;31.43;22.30;;;0.70;99.90;;;;;;4975037;28;20893;-61
2021/12/23 12:01:22;;;;;;;32.03;22.73;;;0.70;99.90;;;;;;4969493;28;20513;-61
2021/12/23 12:04:10;;;;;;;29.40;21.90;;;0.70;99.90;;;;;;4974969;28;20473;-61
2021/12/23 12:06:40;;;;;;;32.10;22.53;;;0.70;99.90;;;;;;4967274;28;20881;-61
2021/12/23 12:09:14;;;;;;;30.10;22.40;;;0.80;99.90;;;;;;4973621;28;20551;-61
2021/12/23 12:11:50;;;;;;;30.17;22.93;;;0.70;99.90;;;;;;4975120;28;20841;-61
2021/12/23 12:14:40;;;;;;;31.90;22.90;;;0.80;99.90;;;;;;4975942;28;20556;-61
2021/12/23 12:17:40;;;;;;;32.47;22.70;;;0.70;99.90;;;;;;4972353;28;20477;-61
2021/12/23 12:20:23;;;;;;;30.47;22.33;;;0.80;99.90;;;;;;4993662;28;20468;-61
2021/12/23 12:22:59;;;;;;;35.53;22.77;;;0.90;99.90;;;;;;4987051;28;20842;-61
2021/12/23 12:26:05;;;;;;;36.73;24.07;;;0.80;99.90;;;;;;4974699;28;20483;-61
2021/12/23 12:28:46;;;;;;;35.80;24.37;;;0.80;99.90;;;;;;4970957;28;20917;-61
2021/12/23 12:31:20;;;;;;;35.40;24.80;;;0.80;99.90;;;;;;4962587;28;21068;-61
2021/12/23 12:33:55;;;;;;;34.33;23.43;;;0.80;99.90;;;;;;4961486;28;20474;-61
2021/12/23 12:36:25;;;;;;;34.30;23.67;;;0.80;99.90;;;;;;4970025;28;20814;-61
2021/12/23 12:38:57;;;;;;;34.27;23.70;;;0.80;99.90;;;;;;4964684;28;20478;-61
2021/12/23 12:41:31;;;;;;;34.47;23.57;;;0.80;99.90;;;;;;4955057;28;20467;-61
2021/12/23 12:44:08;;;;;;;31.23;23.30;;;0.80;99.90;;;;;;4954496;28;20903;-61
2021/12/23 12:47:11;;;;;;;31.47;22.60;;;0.80;99.90;;;;;;4943865;28;20956;-61
2021/12/23 12:49:44;;;;;;;32.70;22.13;;;0.80;99.90;;;;;;4966443;28;20478;-61
2021/12/23 12:52:22;;;;;;;32.33;23.13;;;0.80;99.90;;;;;;4974430;28;20570;-61
2021/12/23 12:54:56;;;;;;;32.97;23.33;;;0.80;99.90;;;;;;4972643;28;20493;-61
2021/12/23 12:57:31;;;;;;;33.97;24.53;;;0.80;99.90;;;;;;4974298;28;21006;-61
2021/12/23 13:00:31;;;;;;;33.60;23.87;;;0.80;99.90;;;;;;4971418;28;21025;-61
2021/12/23 13:03:05;;;;;;;32.43;22.87;;;0.90;99.90;;;;;;4943024;28;20566;-61
2021/12/23 13:05:38;;;;;;;33.43;23.87;;;0.80;99.90;;;;;;4934096;29;20484;-61
2021/12/23 13:08:19;;;;;;;33.53;23.93;;;0.80;99.90;;;;;;4944316;28;21041;-61
2021/12/23 13:11:21;;;;;;;33.83;23.20;;;0.80;99.90;;;;;;4972897;28;20482;-61
2021/12/23 13:14:01;;;;;;;34.43;25.10;;;0.90;99.90;;;;;;4976210;28;20536;-63
2021/12/23 13:16:51;;;;;;;36.43;24.37;;;1.00;99.90;;;;;;4972295;28;20822;-64
2021/12/23 13:19:29;;;;;;;41.03;28.00;;;1.00;99.90;;;;;;4973601;28;20479;-63
2021/12/23 13:21:59;;;;;;;43.50;26.90;;;1.10;99.90;;;;;;4973526;28;20497;-64
2021/12/23 13:24:29;;;;;;;37.23;26.43;;;1.00;99.90;;;;;;4954227;28;20479;-64
2021/12/23 13:26:59;;;;;;;34.27;25.70;;;1.10;99.90;;;;;;4954551;28;21062;-65
2021/12/23 13:29:30;;;;;;;36.10;25.37;;;1.20;99.90;;;;;;4954319;28;20463;-64
2021/12/23 13:32:02;;;;;;;40.93;28.27;;;1.10;99.90;;;;;;4954589;28;21027;-63
2021/12/23 13:34:33;;;;;;;38.83;28.33;;;1.00;99.90;;;;;;4954198;28;20507;-63
2021/12/23 13:37:06;;;;;;;44.13;33.28;;;1.00;99.90;;;;;;4958950;28;20446;-62
2021/12/23 13:39:37;;;;;;;40.17;29.47;;;1.00;99.90;;;;;;4973495;28;20242;-61
2021/12/23 13:42:07;;;;;;;44.67;36.67;;;1.00;99.90;;;;;;4971458;28;20481;-62
2021/12/23 13:44:38;;;;;;;39.23;28.63;;;1.00;99.90;;;;;;4958070;28;20239;-62
2021/12/23 13:47:09;;;;;;;41.00;28.13;;;1.00;99.90;;;;;;4954303;28;20468;-62
2021/12/23 13:49:39;;;;;;;41.37;26.80;;;1.00;99.90;;;;;;4934676;29;20472;-62
2021/12/23 13:52:10;;;;;;;39.20;26.80;;;1.00;99.90;;;;;;4935984;29;20476;-62
2021/12/23 13:54:41;;;;;;;36.70;26.40;;;1.00;99.90;;;;;;4953713;28;20475;-62